createdAt,value
2022-09-13T00:03:57.668Z,10.80
2022-09-13T00:08:02.205Z,8.52
2022-09-13T00:12:35.904Z,11.38
2022-09-13T00:16:39.032Z,9.38
2022-09-13T00:20:42.289Z,11.75
2022-09-13T00:24:47.014Z,10.75
2022-09-13T00:28:51.931Z,10.57
2022-09-13T00:33:25.999Z,10.73
2022-09-13T00:37:29.082Z,8.98
2022-09-13T00:41:33.751Z,10.07
2022-09-13T00:45:37.155Z,10.52
2022-09-13T00:49:42.335Z,12.73
2022-09-13T00:53:48.811Z,11.93
2022-09-13T00:58:22.566Z,10.63
2022-09-13T01:02:28.709Z,11.75
2022-09-13T01:06:34.810Z,12.32
2022-09-13T01:10:40.382Z,12.07
2022-09-13T01:14:44.830Z,10.50
2022-09-13T01:19:25.998Z,10.25
2022-09-13T01:24:06.807Z,10.18
2022-09-13T01:28:40.447Z,9.82
2022-09-13T01:33:24.409Z,9.48
2022-09-13T01:37:48.102Z,8.75
2022-09-13T01:42:02.497Z,9.73
2022-09-13T01:46:07.491Z,10.13
2022-09-13T01:50:17.190Z,9.80
2022-09-13T01:54:26.086Z,10.40
2022-09-13T01:58:58.334Z,11.57
2022-09-13T02:03:07.200Z,10.52
2022-09-13T02:07:15.422Z,11.03
2022-09-13T02:11:21.055Z,11.63
2022-09-13T02:20:46.231Z,9.33
2022-09-13T02:24:56.995Z,10.13
2022-09-13T02:29:03.321Z,10.93
2022-09-13T02:33:11.208Z,8.80
2022-09-13T02:37:14.853Z,8.98
2022-09-13T02:41:27.891Z,9.38
2022-09-13T02:45:34.921Z,8.95
2022-09-13T02:49:51.794Z,8.70
2022-09-13T02:54:24.356Z,8.73
2022-09-13T02:58:35.624Z,8.93
2022-09-13T03:02:41.060Z,9.60
2022-09-13T03:07:15.124Z,8.87
2022-09-13T03:11:31.170Z,11.27
2022-09-13T03:15:48.854Z,22.50
2022-09-13T03:20:07.157Z,32.70
2022-09-13T03:24:39.184Z,25.30
2022-09-13T03:28:54.995Z,54.40
2022-09-13T03:33:08.421Z,22.67
2022-09-13T03:37:35.136Z,19.50
2022-09-13T03:41:43.424Z,46.42
2022-09-13T03:45:50.448Z,58.88
2022-09-13T03:49:58.255Z,53.83
2022-09-13T03:54:04.883Z,52.70
2022-09-13T03:58:35.336Z,31.52
2022-09-13T04:02:38.393Z,19.55
2022-09-13T04:06:43.180Z,24.63
2022-09-13T04:10:46.211Z,18.75
2022-09-13T04:14:49.409Z,18.60
2022-09-13T04:18:52.389Z,17.65
2022-09-13T04:22:57.965Z,24.10
2022-09-13T04:27:31.892Z,19.35
2022-09-13T04:31:35.078Z,26.42
2022-09-13T04:35:39.236Z,41.67
2022-09-13T04:40:13.274Z,37.50
2022-09-13T04:44:18.900Z,17.50
2022-09-13T04:48:21.968Z,17.17
2022-09-13T04:52:25.230Z,16.38
2022-09-13T04:56:28.685Z,15.65
2022-09-13T05:00:34.166Z,15.40
2022-09-13T05:04:37.215Z,16.48
2022-09-13T05:08:40.483Z,21.77
2022-09-13T05:13:14.156Z,19.52
2022-09-13T05:17:18.730Z,17.20
2022-09-13T05:21:22.562Z,26.10
2022-09-13T05:25:56.865Z,20.70
2022-09-13T05:29:59.884Z,21.40
2022-09-13T05:34:07.394Z,21.98
2022-09-13T05:38:10.431Z,23.80
2022-09-13T05:42:47.385Z,23.13
2022-09-13T05:46:50.413Z,18.33
2022-09-13T05:50:58.128Z,17.30
2022-09-13T05:55:01.680Z,20.48
2022-09-13T05:59:04.897Z,21.38
2022-09-13T06:03:07.952Z,24.13
2022-09-13T06:07:14.213Z,17.92
2022-09-13T06:11:47.826Z,22.75
2022-09-13T06:15:50.974Z,28.85
2022-09-13T06:19:54.011Z,31.23
2022-09-13T06:23:58.713Z,20.25
2022-09-13T06:28:01.705Z,22.58
2022-09-13T06:32:05.345Z,29.77
2022-09-13T06:36:10.280Z,23.98
2022-09-13T06:40:46.950Z,25.48
2022-09-13T06:44:51.420Z,24.73
2022-09-13T06:48:55.445Z,20.50
2022-09-13T06:52:58.600Z,23.58
2022-09-13T06:57:35.299Z,21.50
2022-09-13T07:01:41.343Z,19.67
2022-09-13T07:05:44.444Z,18.67
2022-09-13T07:09:47.536Z,18.05
2022-09-13T07:14:24.485Z,18.55
2022-09-13T07:18:28.867Z,16.67
2022-09-13T07:22:31.853Z,14.73
2022-09-13T07:27:08.486Z,15.02
2022-09-13T07:31:13.504Z,14.43
2022-09-13T07:35:18.250Z,13.43
2022-09-13T07:39:51.983Z,13.52
2022-09-13T07:43:55.429Z,13.98
2022-09-13T07:48:33.372Z,12.48
2022-09-13T07:52:38.188Z,12.73
2022-09-13T07:56:42.312Z,12.43
2022-09-13T08:01:15.913Z,11.38
2022-09-13T08:05:18.994Z,11.20
2022-09-13T08:09:23.403Z,12.32
2022-09-13T08:13:26.647Z,10.95
2022-09-13T08:17:30.366Z,10.82
2022-09-13T08:21:35.245Z,10.77
2022-09-13T08:25:40.800Z,9.43
2022-09-13T08:30:14.788Z,10.13
2022-09-13T08:34:18.245Z,9.40
2022-09-13T08:38:21.299Z,8.70
2022-09-13T08:43:04.119Z,8.70
2022-09-13T08:47:27.862Z,8.45
2022-09-13T08:51:36.607Z,7.75
2022-09-13T08:55:48.954Z,7.38
2022-09-13T09:00:00.569Z,7.45
2022-09-13T09:04:13.490Z,6.35
2022-09-13T09:08:31.323Z,6.35
2022-09-13T09:12:55.117Z,6.43
2022-09-13T09:17:04.180Z,6.43
2022-09-13T09:21:14.009Z,6.38
2022-09-13T09:25:41.523Z,5.18
2022-09-13T09:29:46.308Z,5.40
2022-09-13T09:34:09.157Z,4.90
2022-09-13T09:38:34.264Z,5.10
2022-09-13T09:42:42.866Z,4.57
2022-09-13T09:46:50.263Z,4.10
2022-09-13T09:50:58.360Z,3.72
2022-09-13T09:55:30.305Z,3.80
2022-09-13T09:59:34.470Z,4.13
2022-09-13T10:03:37.493Z,4.30
2022-09-13T10:08:26.184Z,4.07
2022-09-13T10:12:32.546Z,3.90
2022-09-13T10:16:35.625Z,4.47
2022-09-13T10:21:22.840Z,3.75
2022-09-13T10:25:28.053Z,3.58
2022-09-13T10:29:32.027Z,4.03
2022-09-13T10:33:38.233Z,3.60
2022-09-13T10:37:45.512Z,3.30
2022-09-13T10:41:54.965Z,3.67
2022-09-13T10:45:59.762Z,3.17
2022-09-13T10:50:21.767Z,3.78
2022-09-13T10:54:25.599Z,3.85
2022-09-13T10:58:30.396Z,3.53
2022-09-13T11:03:00.535Z,3.72
2022-09-13T11:07:16.611Z,3.85
2022-09-13T11:11:27.534Z,3.60
2022-09-13T11:15:41.546Z,3.13
2022-09-13T11:20:07.033Z,3.53
2022-09-13T11:24:40.429Z,3.53
2022-09-13T11:28:52.434Z,3.53
2022-09-13T11:33:29.019Z,3.25
2022-09-13T11:37:42.788Z,3.33
2022-09-13T11:41:59.033Z,3.30
2022-09-13T11:46:28.390Z,3.72
2022-09-13T11:50:45.853Z,3.80
2022-09-13T11:55:04.380Z,3.55
2022-09-13T11:59:20.078Z,3.65
2022-09-13T12:03:49.096Z,3.30
2022-09-13T12:07:59.066Z,3.58
2022-09-13T12:12:06.694Z,3.30
2022-09-13T12:16:14.101Z,3.28
2022-09-13T12:20:22.996Z,3.75
2022-09-13T12:24:41.759Z,3.85
2022-09-13T12:28:50.438Z,3.97
2022-09-13T12:33:21.461Z,3.83
2022-09-13T12:37:39.742Z,3.55
2022-09-13T12:41:53.357Z,3.88
2022-09-13T12:46:28.091Z,3.55
2022-09-13T12:50:48.313Z,3.40
2022-09-13T12:55:46.805Z,3.25
2022-09-13T13:00:02.648Z,4.05
2022-09-13T13:04:26.824Z,4.20
2022-09-13T13:08:31.394Z,3.85
2022-09-13T13:12:37.183Z,4.07
2022-09-13T13:16:41.663Z,4.28
2022-09-13T13:21:05.285Z,4.00
2022-09-13T13:25:33.377Z,4.07
2022-09-13T13:29:36.734Z,4.55
2022-09-13T13:34:16.956Z,3.70
2022-09-13T13:38:48.947Z,3.60
2022-09-13T13:42:52.795Z,3.85
2022-09-13T13:47:16.356Z,4.07
2022-09-13T13:52:13.934Z,4.15
2022-09-13T13:56:47.964Z,3.97
2022-09-13T14:00:54.200Z,4.32
2022-09-13T14:05:31.847Z,4.32
2022-09-13T14:09:41.112Z,4.32
2022-09-13T14:13:58.185Z,4.70
2022-09-13T14:18:39.427Z,4.18
2022-09-13T14:22:45.091Z,4.28
2022-09-13T14:26:49.642Z,4.07
2022-09-13T14:31:24.959Z,4.00
2022-09-13T14:35:30.743Z,3.92
2022-09-13T14:39:33.986Z,3.92
2022-09-13T14:44:18.854Z,4.07
2022-09-13T14:48:31.731Z,3.72
2022-09-13T14:52:37.759Z,3.90
2022-09-13T14:56:43.752Z,3.85
2022-09-13T15:00:52.554Z,4.22
2022-09-13T15:04:59.241Z,3.90
2022-09-13T15:09:34.171Z,5.28
2022-09-13T15:13:37.993Z,4.10
2022-09-13T15:17:54.105Z,5.60
2022-09-13T15:22:16.511Z,4.00
2022-09-13T15:26:31.585Z,3.83
2022-09-13T15:30:41.790Z,3.40
2022-09-13T15:35:18.704Z,3.40
2022-09-13T15:39:23.395Z,4.00
2022-09-13T15:43:26.527Z,3.72
2022-09-13T15:47:29.791Z,3.63
2022-09-13T15:52:06.774Z,4.03
2022-09-13T15:56:16.831Z,3.60
2022-09-13T16:00:22.067Z,3.50
2022-09-13T16:04:56.280Z,3.60
2022-09-13T16:09:00.425Z,4.10
2022-09-13T16:13:05.395Z,3.70
2022-09-13T16:17:12.681Z,3.60
2022-09-13T16:21:43.947Z,3.67
2022-09-13T16:25:47.815Z,3.78
2022-09-13T16:29:52.201Z,3.80
2022-09-13T16:33:55.671Z,3.75
2022-09-13T16:37:58.853Z,4.18
2022-09-13T16:42:01.907Z,3.67
2022-09-13T16:46:10.050Z,3.95
2022-09-13T16:50:13.123Z,3.97
2022-09-13T16:54:16.238Z,3.80
2022-09-13T16:58:53.566Z,3.85
2022-09-13T17:02:58.322Z,3.70
2022-09-13T17:07:02.712Z,4.00
2022-09-13T17:11:07.770Z,3.85
2022-09-13T17:15:44.903Z,4.05
2022-09-13T17:19:49.539Z,3.88
2022-09-13T17:23:53.234Z,3.83
2022-09-13T17:27:56.319Z,3.95
2022-09-13T17:31:59.969Z,3.78
2022-09-13T17:36:07.531Z,4.18
2022-09-13T17:40:10.797Z,3.97
2022-09-13T17:44:47.930Z,3.75
2022-09-13T17:48:52.303Z,4.07
2022-09-13T17:52:56.962Z,4.15
2022-09-13T17:57:00.438Z,3.85
2022-09-13T18:01:37.624Z,4.05
2022-09-13T18:05:40.697Z,4.78
2022-09-13T18:09:45.402Z,4.57
2022-09-13T18:13:49.086Z,4.57
2022-09-13T18:17:52.114Z,5.03
2022-09-13T18:21:55.312Z,7.57
2022-09-13T18:26:29.150Z,6.70
2022-09-13T18:30:33.650Z,7.88
2022-09-13T18:34:36.697Z,6.88
2022-09-13T18:39:13.175Z,8.88
2022-09-13T18:43:16.269Z,9.25
2022-09-13T18:47:20.690Z,8.25
2022-09-13T18:51:26.287Z,7.93
2022-09-13T18:56:03.770Z,9.48
2022-09-13T19:00:08.257Z,8.45
2022-09-13T19:04:15.176Z,7.32
2022-09-13T19:08:49.852Z,7.10
2022-09-13T19:12:52.909Z,7.22
2022-09-13T19:17:00.533Z,8.60
2022-09-13T19:21:33.358Z,8.50
2022-09-13T19:25:36.453Z,8.60
2022-09-13T19:29:39.649Z,7.60
2022-09-13T19:34:17.647Z,7.90
2022-09-13T19:38:22.119Z,10.73
2022-09-13T19:42:25.551Z,10.43
2022-09-13T19:51:26.991Z,8.45
2022-09-13T19:55:33.148Z,8.18
2022-09-13T20:00:07.641Z,11.20
2022-09-13T20:04:12.874Z,9.02
2022-09-13T20:08:16.179Z,10.40
2022-09-13T20:12:24.097Z,11.38
2022-09-13T20:16:28.854Z,10.52
2022-09-13T20:20:31.925Z,10.63
2022-09-13T20:24:34.932Z,11.18
2022-09-13T20:28:39.781Z,9.68
2022-09-13T20:32:43.134Z,9.10
2022-09-13T20:37:20.062Z,10.70
2022-09-13T20:41:23.288Z,10.40
2022-09-13T20:45:27.890Z,10.35
2022-09-13T20:49:30.988Z,9.65
2022-09-13T20:53:34.768Z,10.90
2022-09-13T20:57:38.231Z,10.35
2022-09-13T21:01:42.700Z,10.50
2022-09-13T21:05:45.768Z,10.65
2022-09-13T21:09:48.907Z,10.77
2022-09-13T21:14:21.961Z,11.90
2022-09-13T21:18:26.343Z,11.02
2022-09-13T21:22:29.462Z,11.30
2022-09-13T21:26:33.580Z,12.02
2022-09-13T21:30:36.721Z,11.45
2022-09-13T21:34:41.192Z,11.77
2022-09-13T21:38:44.544Z,11.90
2022-09-13T21:43:18.339Z,11.95
2022-09-13T21:47:21.364Z,11.82
2022-09-13T21:51:27.131Z,11.52
2022-09-13T21:55:31.445Z,10.65
2022-09-13T21:59:34.446Z,12.70
2022-09-13T22:04:13.172Z,11.75
2022-09-13T22:08:17.590Z,12.05
2022-09-13T22:12:23.162Z,13.23
2022-09-13T22:16:28.439Z,12.85
2022-09-13T22:20:31.541Z,12.60
2022-09-13T22:25:10.608Z,14.77
2022-09-13T22:29:13.877Z,12.93
2022-09-13T22:33:16.907Z,11.05
2022-09-13T22:37:19.949Z,13.15
2022-09-13T22:41:26.274Z,11.90
2022-09-13T22:46:03.267Z,12.52
2022-09-13T22:50:07.146Z,13.63
2022-09-13T22:54:10.139Z,13.75
2022-09-13T22:58:15.069Z,13.98
2022-09-13T23:02:18.142Z,13.02
2022-09-13T23:06:55.040Z,14.77
2022-09-13T23:10:58.292Z,14.30
2022-09-13T23:15:02.747Z,13.95
2022-09-13T23:19:06.457Z,14.52
2022-09-13T23:23:10.949Z,14.77
2022-09-13T23:27:44.302Z,14.05
2022-09-13T23:31:49.150Z,15.88
2022-09-13T23:35:58.648Z,16.92
2022-09-13T23:40:01.861Z,16.73
2022-09-13T23:44:05.766Z,16.80
2022-09-13T23:48:10.294Z,17.65
2022-09-13T23:52:47.033Z,17.23
2022-09-13T23:56:50.152Z,16.50
